Lawrenceville, Virginia
Current Conditions -  °F | °C
As of 4:35 PM on Friday 31 Oct 2014 (Local Time) from KLVL Reporting Station
Overcast Overcast  
Wind Chill: 56°   Ceiling: 5000
Heat Index: 56°   Visibility: 10mi
Dew Point: 42°   Wind: 0mph
Humidity: 59%   Direction: NA
Pressure: 29.82"   Gusts: NA
Location:  36.76°N, 77.85°W
Report Text: KLVL 312035Z AUTO 00000KT 10SM OVC050 14/06 A2982 RMK AO1 T01360058
Loading
Personal Weather Stations






























Interactive Weather Map
Tropical Storm Tracking
New forecast layout! Learn more

10-Day Weather Forecast

Advertisements
Track Severe Weather on mobile